EHLW 200025Z AUTO 24003KT 5000 BR BKN010 OVC013 11/11 Q1021 GRN EHLW 200021Z AUTO 24003KT 3200 BR FEW009 BKN010 11/11 Q1021 YLO EHLW 200014Z AUTO 24003KT 4200 BR FEW008 BKN009 11/11 Q1021 GRN EHLW 200004Z AUTO 24003KT 5000 BR SCT008 BKN009 11/10 Q1021 GRN EHLW 200003Z AUTO 23002KT 6000 BR SCT008 11/10 Q1021 GRN EHLW 192356Z AUTO 22002KT 7000 BR SCT008 SCT360 11/11 Q1021 GRN EHLW 192355Z AUTO 22002KT 7000 BR FEW008 BKN350 11/11 Q1021 WHT EHLW 192351Z AUTO VRB02KT 7000 BR FEW009 SCT011 BKN350 11/10 Q1021 GRN EHLW 192325Z AUTO 27003KT 250V320 9999 SCT007 BKN008 OVC009 12/11 Q1021 GRN EHLW 192255Z AUTO 29004KT 250V320 9999 BKN008 BKN009 11/11 Q1021 GRN EHLW 192239Z AUTO 27004KT 9999 SCT008 BKN009 11/11 Q1021 GRN EHLW 192235Z AUTO 27004KT 9999 FEW009 SCT010 11/10 Q1021 GRN EHLW 192225Z AUTO 27005KT 9999 SCT290 12/11 Q1020 BLU EHLW 192155Z AUTO 28008KT 250V310 9999 NCD 12/11 Q1020 BLU EHLW 192125Z AUTO 27008KT 230V290 9999 NCD 12/11 Q1020 BLU EHLW 192055Z AUTO 26006KT 9999 NCD 12/11 Q1020 BLU EHLW 192046Z AUTO 26006KT 210V280 9999 FEW007 12/11 Q1020 BLU EHLW 192045Z AUTO 26006KT 200V270 9999 FEW006 SCT008 12/11 Q1020 GRN EHLW 192038Z AUTO 26006KT 200V290 9999 SCT006 SCT008 BKN009 12/12 Q1020 YLO EHLW 192025Z AUTO 26006KT 9999 BKN007 BKN008 BKN310 12/12 Q1019 GRN EHLW 192017Z AUTO 26006KT 230V300 9999 BKN007 BKN008 OVC310 13/12 Q1019 GRN EHLW 192010Z AUTO 26005KT 230V300 9999 FEW007 SCT008 OVC310 13/12 Q1019 GRN EHLW 191955Z AUTO 28006KT 250V320 9999 FEW007 OVC280 13/12 Q1019 BLU EHLW 191935Z AUTO 27008KT 9999 FEW008 SCT320 13/12 Q1019 BLU EHLW 191926Z AUTO 26009KT 240V300 9999 SCT009 SCT011 BKN330 13/12 Q1019 GRN EHLW 191925Z AUTO 27009KT 230V300 9999 FEW009 SCT330 13/12 Q1019 BLU EHLW 191914Z AUTO 27009KT 240V310 9999 FEW007 14/12 Q1019 BLU EHLW 191855Z AUTO 27010KT 230V310 9999 BKN007 OVC008 14/13 Q1019 GRN EHLW 191825Z AUTO 27011KT 240V310 9999 SCT007 BKN008 14/13 Q1018 GRN EHLW 191759Z AUTO 27011KT 240V300 9999 OVC007 15/13 Q1018 GRN EHLW 191755Z AUTO 27012KT 240V300 9999 OVC006 15/13 Q1018 YLO EHLW 191745Z AUTO 26015KT 230V310 9999 SCT006 BKN008 BKN010 16/14 Q1018 YLO EHLW 191733Z AUTO 27012KT 240V300 9999 SCT008 BKN009 OVC011 16/14 Q1018 GRN EHLW 191726Z AUTO 27011KT 240V300 9999 FEW008 SCT009 BKN011 17/14 Q1017 GRN EHLW 191725Z AUTO 27009KT 9999 FEW009 SCT010 OVC016 17/14 Q1017 GRN EHLW 191700Z AUTO 27013KT 240V310 9999 BKN011 BKN015 BKN019 16/14 Q1017 GRN EHLW 191659Z AUTO 27013KT 230V310 9999 SCT011 BKN015 BKN019 16/15 Q1017 GRN EHLW 191655Z AUTO 27013KT 230V310 9999 FEW012 BKN015 BKN019 16/15 Q1017 WHT EHLW 191649Z AUTO 27014KT 240V310 9999 FEW006 SCT009 BKN015 16/14 Q1017 GRN EHLW 191647Z AUTO 27013KT 240V310 9999 SCT006 BKN007 BKN019 17/15 Q1017 YLO EHLW 191641Z AUTO 27014KT 250V310 9999 BKN007 BKN008 BKN011 17/15 Q1017 GRN EHLW 191636Z AUTO 27013KT 220V310 9999 FEW007 SCT008 BKN014 17/15 Q1017 GRN EHLW 191635Z AUTO 26011KT 220V300 9999 FEW012 SCT014 BKN019 18/16 Q1017 GRN EHLW 191625Z AUTO 24009KT 210V270 9999 SCT018 BKN022 BKN044 20/16 Q1016 WHT EHLW 191621Z AUTO 25009KT 210V270 9999 FEW018 SCT022 BKN044 20/16 Q1016 WHT EHLW 191555Z AUTO 24007KT 210V280 9999 SCT048 20/16 Q1016 BLU EHLW 191525Z AUTO 22005KT 180V250 9999 OVC310 20/16 Q1016 BLU EHLW 191455Z AUTO 20004KT 150V240 9999 OVC230 19/16 Q1016 BLU EHLW 191425Z AUTO 11006KT 030V190 9999 OVC160 18/16 Q1015 BLU EHLW 191421Z AUTO 10006KT 030V190 9999 FEW094 OVC150 18/16 Q1015 BLU NOSIG EHLW 191413Z AUTO VRB04KT 9999 SCT094 OVC130 17/16 Q1016 BLU NOSIG EHLW 191412Z AUTO VRB05KT 9999 FEW015CB OVC130 17/16 Q1016 BLU NOSIG EHLW 191356Z AUTO 10005KT 040V160 9000 -DZ FEW015CB OVC110 17/16 Q1016 BLU NOSIG EHLW 191355Z AUTO 13004KT 040V200 6000 -DZ FEW015CB OVC100 17/16 Q1016 WHT NOSIG EHLW 191351Z AUTO 14003KT 090V200 6000 -DZRA BKN015CB OVC100 18/17 Q1016 WHT NOSIG EHLW 191339Z AUTO 16004KT 110V200 7000 -RA BKN015CB OVC100 18/17 Q1017 WHT TEMPO 25010G25KT 3000 SHRA TSRA SCT025 SCT040CB EHLW 191327Z AUTO 21004KT 140V240 7000 -SHRA FEW005 BKN015CB BKN092 18/17 Q1018 WHT TEMPO 25010G25KT 3000 SHRA TSRA SCT025 SCT040CB EHLW 191325Z AUTO 23007KT 190V260 9000 SHRA FEW005 SCT008 BKN015CB 18/17 Q1018 GRN TEMPO 25010G25KT 3000 SHRA TSRA SCT025 SCT040CB EHLW 191312Z AUTO 24006KT 200V260 7000 -SHRA FEW004 SCT015CB OVC093 18/17 Q1018 WHT TEMPO 25010G25KT 3000 SHRA TSRA SCT025 SCT040CB EHLW 191307Z AUTO 23005KT 8000 -RA FEW004 SCT015CB BKN093 18/17 Q1018 WHT TEMPO 25010G25KT 3000 SHRA TSRA SCT025 SCT040CB EHLW 191303Z AUTO 23006KT 180V250 8000 -RA SCT004 BKN015CB BKN087 18/17 Q1018 YLO TEMPO 25010G25KT 3000 SHRA TSRA SCT025 SCT040CB EHLW 191255Z AUTO 22006KT 180V240 9000 -SHRA BKN015CB SCT084 BKN089 18/17 Q1018 RETSRA WHT TEMPO 25010G25KT 3000 SHRA TSRA SCT025 SCT040CB EHLW 191238Z AUTO 24007KT 200V270 6000 TSRA FEW007 BKN015CB BKN065 18/17 Q1018 WHT TEMPO 25010G25KT 3000 SHRA TSRA SCT025 SCT040CB EHLW 191225Z AUTO 22012KT 180V240 6000 TSRA FEW015CB SCT020 BKN023 19/17 Q1018 WHT TEMPO 25010G25KT 3000 SHRA TSRA SCT025 SCT040CB EHLW 191221Z AUTO 22010KT 4100 +TSRA FEW015CB SCT029 BKN048 19/17 Q1018 GRN TEMPO 25010G25KT 3000 SHRA TSRA SCT025 SCT040CB EHLW 191216Z AUTO 23009KT 6000 TSRA FEW015CB SCT043 BKN054 19/17 Q1018 WHT TEMPO 25010G25KT 3000 SHRA TSRA SCT025 SCT040CB EHLW 191206Z AUTO 23007KT 190V250 9000 TSRA FEW015CB SCT063 BKN071 19/17 Q1017 BLU TEMPO 25010G25KT 3000 SHRA TSRA SCT025 SCT040CB EHLW 191157Z AUTO 23008KT 190V260 7000 +TSRA FEW015CB BKN061 BKN067 20/17 Q1017 WHT TEMPO 25010G25KT 3000 SHRA TSRA SCT025 SCT040CB EHLW 191155Z AUTO 22010KT 180V250 3000 R05/P3000N +TSRA FEW015CB BKN061 BKN067 21/17 Q1017 YLO TEMPO 25010G25KT 3000 SHRA TSRA SCT025 SCT040CB EHLW 191149Z AUTO 22008KT 180V240 9999 -TSRA FEW018CB SCT021 BKN073 21/16 Q1017 WHT TEMPO 25010G25KT 3000 SHRA TSRA SCT025 SCT040CB EHLW 191142Z AUTO 23006KT 190V260 9999 TS SCT021 OVC077 21/17 Q1016 WHT TEMPO 25010G25KT 3000 SHRA TSRA SCT025 SCT040CB EHLW 191136Z AUTO 19003KT 160V260 9999 TS FEW020CB OVC077 21/16 Q1016 BLU TEMPO 25010G25KT 3000 SHRA TSRA SCT025 SCT040CB EHLW 191127Z AUTO 15004KT 120V210 9999 BKN079/// OVC091/// 22/16 Q1015 BLU TEMPO 25010G25KT 3000 SHRA TSRA SCT025 SCT040CB EHLW 191125Z AUTO 16006KT 100V210 9999 SCT081 BKN091 OVC100 22/15 Q1015 BLU BECMG 16010KT EHLW 191055Z AUTO 13009KT 080V180 9999 OVC120 21/17 Q1015 BLU BECMG 16010KT EHLW 191025Z AUTO 11011KT 050V180 9999 SCT099 BKN100 20/17 Q1015 BLU BECMG 16010KT EHLW 191008Z AUTO 11011KT 040V170 8000 BR OVC100 19/17 Q1016 BLU TEMPO VRB06KT 4000 SHRA TSRA SCT004 SCT045CB EHLW 190955Z AUTO VRB10KT 7000 BR OVC110 19/16 Q1016 WHT TEMPO VRB06KT 4000 SHRA TSRA SCT004 SCT045CB EHLW 190925Z AUTO VRB07KT 5000 BR SCT004 BKN006 OVC007 18/16 Q1017 YLO TEMPO VRB06KT 4000 SHRA TSRA SCT004 SCT045CB EHLW 190918Z AUTO VRB06KT 5000 BR SCT004 BKN006 OVC007 18/17 Q1017 YLO TEMPO VRB06KT 4000 SHRA TSRA SCT004 SCT045CB EHLW 190908Z AUTO 09005KT 360V170 5000 BR BKN004 BKN007 FEW015CB 17/16 Q1017 YLO TEMPO VRB06KT 4000 SHRA TSRA SCT004 SCT045CB EHLW 190901Z AUTO VRB04KT 6000 BR SCT004 BKN005 BKN007 FEW015CB 18/16 Q1017 YLO TEMPO VRB06KT 4000 SHRA TSRA SCT004 SCT045CB EHLW 190855Z AUTO 07003KT 340V100 6000 -RADZ BKN005 BKN006 FEW015CB 18/16 Q1017 YLO TEMPO VRB06KT 4000 SHRA TSRA SCT004 SCT045CB EHLW 190825Z AUTO 10006KT 6000 BR BKN005 BKN006 BKN110 18/16 Q1017 YLO TEMPO VRB06KT 4000 SHRA TSRA SCT004 SCT045CB EHLW 190819Z AUTO 09006KT 7000 BR SCT004 BKN005 BKN110 17/16 Q1017 YLO TEMPO VRB06KT 4000 SHRA TSRA SCT004 SCT045CB EHLW 190815Z AUTO VRB07KT 7000 BR FEW004 SCT006 BKN100 18/16 Q1017 YLO TEMPO VRB06KT 4000 SHRA TSRA EHLW 190803Z AUTO 08008KT 360V160 6000 BR FEW004 OVC100 17/16 Q1017 WHT TEMPO VRB06KT 4000 SHRA TSRA EHLW 190755Z AUTO VRB08KT 6000 BR SCT004 OVC110 17/16 Q1017 YLO TEMPO VRB06KT 4000 SHRA TSRA EHLW 190747Z AUTO VRB08KT 7000 BR SCT004 BKN005 OVC100 17/16 Q1017 YLO TEMPO VRB06KT 2500 SHRA TSRA EHLW 190740Z AUTO VRB07KT 8000 BR SCT004 OVC100 17/16 Q1017 YLO TEMPO VRB06KT 2500 SHRA TSRA EHLW 190725Z AUTO 05004KT 360V130 9000 BR FEW066 SCT089 BKN098 17/16 Q1017 BLU TEMPO VRB06KT 2500 SHRA TSRA EHLW 190713Z AUTO 01004KT 330V040 9000 BR FEW076 SCT086 BKN092 17/16 Q1017 BLU TEMPO VRB06KT 2500 SHRA TSRA EHLW 190700Z AUTO 36005KT 8000 BR OVC100 16/16 Q1016 BLU TEMPO VRB06KT 2500 SHRA TSRA EHLW 190655Z AUTO 36005KT 330V030 6000 BR FEW015CB SCT096 OVC100 16/16 Q1016 WHT TEMPO VRB06KT 2500 SHRA TSRA EHLW 190644Z AUTO 35006KT 310V020 6000 BR FEW015CB SCT081 BKN087 16/16 Q1017 WHT TEMPO VRB06KT 2500 SHRA TSRA EHLW 190637Z AUTO 35006KT 300V020 4100 -DZRA SCT015CB SCT081 BKN094 16/16 Q1017 GRN TEMPO VRB06KT 2500 SHRA TSRA EHLW 190630Z AUTO 35006KT 300V030 3900 -RA BKN015CB SCT086 BKN099 16/16 Q1017 GRN TEMPO VRB06KT 2500 SHRA TSRA EHLW 190625Z AUTO 36005KT 310V040 3000 R23/P3000D -SHRA BKN015CB SCT077 BKN089 17/16 Q1017 RERA YLO TEMPO VRB06KT 2500 SHRA TSRA EHLW 190617Z AUTO 33003KT 230V020 2700 R23/P3000N SHRA BKN015CB SCT080 BKN089 17/16 Q1017 YLO TEMPO VRB06KT 2500 SHRA TSRA EHLW 190605Z AUTO 27005KT 230V320 2900 R23/P3000N RA SCT015CB BKN072 BKN080 17/16 Q1018 YLO TEMPO 3000 SHRA EHLW 190555Z AUTO 26009KT 210V290 3700 RA SCT015CB SCT080 BKN091 17/16 Q1018 GRN TEMPO 3000 SHRA EHLW 190537Z AUTO 28003KT 230V320 6000 -RADZ SCT015CB BKN089 OVC095 16/15 Q1017 WHT EHLW 190525Z AUTO 26006KT 230V300 6000 -SHRA SCT015CB SCT025 BKN028 16/15 Q1018 REDZ WHT EHLW 190515Z AUTO 24009KT 210V270 7000 TSRA FEW015CB SCT021 BKN024 OVC028 16/14 Q1018 WHT EHLW 190508Z AUTO 25010KT 210V270 7000 -TSRA DZ FEW015CB SCT021 BKN028 16/14 Q1018 WHT EHLW 190504Z AUTO 25011KT 190V270 7000 DZ TS FEW015CB SCT022 BKN025 OVC067 16/14 Q1018 WHT EHLW 190503Z AUTO 23009KT 190V270 8000 -TSRA -DZ FEW015CB BKN024 OVC066 16/14 Q1017 WHT EHLW 190459Z AUTO 22008G18KT 150V250 8000 -TSRA FEW015CB SCT025 BKN066 OVC102 16/14 Q1017 BLU EHLW 190455Z AUTO 20007KT 140V250 9000 TS BR FEW015CB SCT067 BKN074 16/14 Q1017 BLU EHLW 190447Z AUTO 17007KT 110V200 9000 TS BR FEW015CB SCT070 BKN082 17/14 Q1016 BLU EHLW 190425Z AUTO 12007KT 080V160 9999 FEW015CB OVC120 16/13 Q1015 RETS BLU EHLW 190416Z AUTO 12007KT 050V160 9999 FEW015CB OVC130 16/13 Q1016 BLU EHLW 190359Z AUTO 11008KT 050V180 9999 TS FEW015CB OVC180 16/13 Q1016 BLU EHLW 190355Z AUTO 11007KT 050V150 9999 OVC180 16/13 Q1016 BLU EHLW 190325Z AUTO 11005KT 050V160 9999 FEW023 OVC100 15/13 Q1016 BLU EHLW 190255Z AUTO 04004KT 350V120 9000 BR FEW074 SCT087 BKN093 14/13 Q1017 BLU EHLW 190225Z AUTO 09003KT 350V160 9000 BR FEW140 OVC210 15/13 Q1017 BLU EHLW 190206Z AUTO VRB04KT 9999 OVC220 15/13 Q1017 BLU EHLW 190155Z AUTO VRB04KT 9999 BKN076 OVC240 14/13 Q1017 BLU EHLW 190150Z AUTO VRB04KT 6000 BR BKN076 OVC240 14/13 Q1017 WHT EHLW 190140Z AUTO VRB04KT 9000 BR FEW077 OVC240 14/13 Q1017 BLU EHLW 190139Z AUTO VRB04KT 7000 BR OVC240 14/13 Q1017 WHT EHLW 190125Z AUTO VRB04KT 5000 BR BKN080 BKN097 OVC240 13/13 Q1017 WHT EHLW 190109Z AUTO VRB04KT 3100 BR SCT081 BKN089 BKN096 13/13 Q1018 YLO EHLW 190107Z AUTO VRB05KT 4200 BR SCT084 SCT091 BKN097 13/12 Q1018 GRN EHLW 190055Z AUTO VRB04KT 2700 BR FEW086 SCT092 OVC240 13/13 Q1018 YLO EHLW 190048Z AUTO VRB04KT 2800 BR FEW089 OVC240 13/13 Q1018 YLO EHLW 190047Z AUTO 09004KT 020V180 4800 BR FEW096 OVC240 13/13 Q1018 GRN EHLW 190039Z AUTO 09005KT 030V160 5000 BR FEW096 OVC240 13/12 Q1018 WHT EHLW 190037Z AUTO VRB04KT 4300 BR FEW096 OVC240 12/12 Q1018 GRN EHLW 190029Z AUTO 08005KT 350V160 3100 BR OVC240/// 13/12 Q1018 YLO EHLW 190025Z AUTO 09005KT 350V160 4000 BR OVC240 12/12 Q1018 GRN EHLW 190007Z AUTO 08004KT 020V160 2200 BR OVC230 11/11 Q1018 YLO EHLW 190006Z AUTO 07004KT 020V140 0900 FG BKN230 OVC340 11/11 Q1018 AMB EHLW 190000Z AUTO 06004KT 360V130 0750 FG SCT230 OVC340 11/11 Q1018 RED EHLW 182355Z AUTO 06004KT 010V130 2500 BR FEW240 BKN310 OVC360 11/11 Q1018 YLO EHLW 182339Z AUTO 05004KT 360V090 4800 BR SCT240 OVC320 11/11 Q1018 GRN EHLW 182333Z AUTO VRB04KT 2000 BR BKN240 OVC320 11/11 Q1018 YLO EHLW 182326Z AUTO VRB04KT 0900 FG OVC240 12/12 Q1018 AMB EHLW 182325Z AUTO 07004KT 360V130 0700 FG BKN240 OVC330 12/12 Q1019 RED EHLW 182316Z AUTO 08004KT 340V140 1000 BR FEW260 OVC330 11/11 Q1019 AMB EHLW 182311Z AUTO VRB04KT 1700 BR OVC330 12/11 Q1019 YLO EHLW 182306Z AUTO VRB04KT 1300 BR SCT260 OVC330 12/11 Q1019 AMB EHLW 182255Z AUTO 07004KT 010V160 2700 BR OVC250 11/11 Q1019 YLO EHLW 182248Z AUTO VRB04KT 2500 BR OVC250 11/11 Q1019 YLO EHLW 182246Z AUTO VRB04KT 1100 BR OVC250 11/11 Q1019 AMB EHLW 182225Z AUTO 07003KT 360V120 1600 BR OVC260 11/11 Q1019 YLO EHLW 182155Z AUTO 05003KT 020V090 3100 BR OVC250 12/11 Q1019 YLO EHLW 182135Z AUTO 07003KT 340V130 2800 BR FEW270 OVC360 12/11 Q1020 YLO EHLW 182126Z AUTO VRB03KT 4300 BR SCT270 OVC360 13/12 Q1019 GRN EHLW 182125Z AUTO VRB04KT 3200 BR SCT270 OVC360 13/12 Q1019 YLO EHLW 182116Z AUTO 06004KT 010V110 3500 BR OVC360 12/11 Q1019 YLO EHLW 182100Z AUTO 07005KT 360V160 6000 BR OVC360 13/12 Q1020 WHT EHLW 182059Z AUTO 07004KT 350V150 3300 BR BKN360 13/12 Q1020 YLO EHLW 182055Z AUTO VRB04KT 7000 BR BKN360 13/12 Q1020 WHT EHLW 182041Z AUTO VRB05KT 7000 BR BKN260 OVC390 13/12 Q1020 WHT EHLW 182025Z AUTO 07005KT 350V150 9999 OVC260 13/12 Q1020 BLU EHLW 181955Z AUTO VRB02KT 9999 OVC270 13/12 Q1020 BLU EHLW 181925Z AUTO 36002KT 9999 OVC270 14/12 Q1020 BLU EHLW 181855Z AUTO 01003KT 360V060 9999 OVC250 15/13 Q1020 BLU EHLW 181825Z AUTO 35004KT 9999 OVC250 17/13 Q1020 BLU EHLW 181755Z AUTO 35005KT 310V010 9999 OVC260 18/12 Q1020 BLU EHLW 181725Z AUTO 33005KT 300V010 9999 BKN280 OVC330 18/12 Q1020 BLU EHLW 181655Z AUTO 34006KT 290V020 9999 BKN290 OVC350 19/11 Q1020 BLU EHLW 181625Z AUTO 34006KT 290V010 9999 OVC270 19/12 Q1020 BLU EHLW 181555Z AUTO 34007KT 290V020 9999 OVC300 19/12 Q1021 BLU EHLW 181525Z AUTO 33009KT 280V010 9999 OVC250 19/12 Q1021 BLU EHLW 181455Z AUTO 33009KT 280V030 9999 FEW088 OVC280 19/13 Q1021 BLU EHLW 181425Z AUTO 33008KT 270V030 9999 SCT086 BKN094 BKN270 19/12 Q1021 BLU EHLW 181417Z AUTO 33008KT 270V010 9999 BKN088 BKN100 20/13 Q1021 BLU EHLW 181355Z AUTO 32008KT 250V020 9999 BKN052 BKN063 BKN068 19/13 Q1021 BLU NOSIG EHLW 181325Z AUTO 32008KT 290V010 9999 OVC066 18/14 Q1021 BLU NOSIG EHLW 181255Z AUTO 32007KT 270V360 9999 OVC066 19/14 Q1021 BLU NOSIG

METAR Messwerte "LEEUWARDEN RNLAF" EHLW

Zurück zur Übersicht

Ortsname
Ländercode / m ü. NN
Zeit Temperatur Taupunkt Rel.
Luftfeuchte
Luftdruck:
Altimeter
NN
Station
Wind in Beaufort
(Knoten)
Sichtweite
(Meter)
Wolken
(Meter über Grund)
Wettererscheinung
LEEUWARDEN RNLAF
NL 1
Fr 20.05. 02:251111100 %1021
1021
1021
WSW 2 (3)5000Bedeckt (400)
Stark bewölkt (300)
Nebeldunst
LEEUWARDEN RNLAF
NL 1
Fr 20.05. 02:211111100 %1021
1021
1021
WSW 2 (3)3200Stark bewölkt (300)
Leicht bewölkt (270)
Nebeldunst
LEEUWARDEN RNLAF
NL 1
Fr 20.05. 02:141111100 %1021
1021
1021
WSW 2 (3)4200Stark bewölkt (270)
Leicht bewölkt (240)
Nebeldunst
LEEUWARDEN RNLAF
NL 1
Fr 20.05. 02:04111094 %1021
1021
1021
WSW 2 (3)5000Stark bewölkt (270)
Wolkig (240)
Nebeldunst
LEEUWARDEN RNLAF
NL 1
Fr 20.05. 02:03111094 %1021
1021
1021
SW 1 (2)6000Wolkig (240)Nebeldunst
LEEUWARDEN RNLAF
NL 1
Fr 20.05. 01:561111100 %1021
1021
1021
SW 1 (2)7000Wolkig (11000)
Wolkig (240)
Nebeldunst
LEEUWARDEN RNLAF
NL 1
Fr 20.05. 01:551111100 %1021
1021
1021
SW 1 (2)7000Stark bewölkt (11000)
Leicht bewölkt (240)
Nebeldunst
LEEUWARDEN RNLAF
NL 1
Fr 20.05. 01:51111094 %1021
1021
1021
Uml 1 (2)7000Stark bewölkt (11000)
Wolkig (340)
Leicht bewölkt (270)
Nebeldunst
LEEUWARDEN RNLAF
NL 1
Fr 20.05. 01:25121194 %1021
1021
1021
W 2 (3)
WSW - NW
>= 10000Bedeckt (270)
Stark bewölkt (240)
Wolkig (210)
 
LEEUWARDEN RNLAF
NL 1
Fr 20.05. 00:551111100 %1021
1021
1021
WNW 2 (4)
WSW - NW
>= 10000Stark bewölkt (270)
Stark bewölkt (240)
 
LEEUWARDEN RNLAF
NL 1
Fr 20.05. 00:391111100 %1021
1021
1021
W 2 (4)>= 10000Stark bewölkt (270)
Wolkig (240)
 
LEEUWARDEN RNLAF
NL 1
Fr 20.05. 00:35111094 %1021
1021
1021
W 2 (4)>= 10000Wolkig (300)
Leicht bewölkt (270)
 
LEEUWARDEN RNLAF
NL 1
Fr 20.05. 00:25121194 %1020
1020
1020
W 2 (5)>= 10000Wolkig (8800) 
LEEUWARDEN RNLAF
NL 1
Do 19.05. 23:55121194 %1020
1020
1020
W 3 (8)
WSW - NW
>= 10000  
LEEUWARDEN RNLAF
NL 1
Do 19.05. 23:25121194 %1020
1020
1020
W 3 (8)
SW - WNW
>= 10000  
LEEUWARDEN RNLAF
NL 1
Do 19.05. 22:55121194 %1020
1020
1020
W 2 (6)>= 10000  
LEEUWARDEN RNLAF
NL 1
Do 19.05. 22:46121194 %1020
1020
1020
W 2 (6)
SSW - W
>= 10000Leicht bewölkt (210) 
LEEUWARDEN RNLAF
NL 1
Do 19.05. 22:45121194 %1020
1020
1020
W 2 (6)
SSW - W
>= 10000Wolkig (240)
Leicht bewölkt (180)
 
LEEUWARDEN RNLAF
NL 1
Do 19.05. 22:381212100 %1020
1020
1020
W 2 (6)
SSW - WNW
>= 10000Stark bewölkt (270)
Wolkig (240)
Wolkig (180)
 
LEEUWARDEN RNLAF
NL 1
Do 19.05. 22:251212100 %1019
1019
1019
W 2 (6)>= 10000Stark bewölkt (9400)
Stark bewölkt (240)
Stark bewölkt (210)
 
LEEUWARDEN RNLAF
NL 1
Do 19.05. 22:17131294 %1019
1019
1019
W 2 (6)
SW - WNW
>= 10000Bedeckt (9400)
Stark bewölkt (240)
Stark bewölkt (210)
 
LEEUWARDEN RNLAF
NL 1
Do 19.05. 22:10131294 %1019
1019
1019
W 2 (5)
SW - WNW
>= 10000Bedeckt (9400)
Wolkig (240)
Leicht bewölkt (210)
 
LEEUWARDEN RNLAF
NL 1
Do 19.05. 21:55131294 %1019
1019
1019
W 2 (6)
WSW - NW
>= 10000Bedeckt (8500)
Leicht bewölkt (210)
 
LEEUWARDEN RNLAF
NL 1
Do 19.05. 21:35131294 %1019
1019
1019
W 3 (8)>= 10000Wolkig (9800)
Leicht bewölkt (240)
 
LEEUWARDEN RNLAF
NL 1
Do 19.05. 21:26131294 %1019
1019
1019
W 3 (9)
WSW - WNW
>= 10000Stark bewölkt (10000)
Wolkig (340)
Wolkig (270)
 
LEEUWARDEN RNLAF
NL 1
Do 19.05. 21:25131294 %1019
1019
1019
W 3 (9)
SW - WNW
>= 10000Wolkig (10000)
Leicht bewölkt (270)
 
LEEUWARDEN RNLAF
NL 1
Do 19.05. 21:14141288 %1019
1019
1019
W 3 (9)
WSW - NW
>= 10000Leicht bewölkt (210) 
LEEUWARDEN RNLAF
NL 1
Do 19.05. 20:55141394 %1019
1019
1019
W 3 (10)
SW - NW
>= 10000Bedeckt (240)
Stark bewölkt (210)
 
LEEUWARDEN RNLAF
NL 1
Do 19.05. 20:25141394 %1018
1018
1018
W 4 (11)
WSW - NW
>= 10000Stark bewölkt (240)
Wolkig (210)
 
LEEUWARDEN RNLAF
NL 1
Do 19.05. 19:59151388 %1018
1018
1018
W 4 (11)
WSW - WNW
>= 10000Bedeckt (210) 
LEEUWARDEN RNLAF
NL 1
Do 19.05. 19:55151388 %1018
1018
1018
W 4 (12)
WSW - WNW
>= 10000Bedeckt (180) 
LEEUWARDEN RNLAF
NL 1
Do 19.05. 19:45161488 %1018
1018
1018
W 4 (15)
SW - NW
>= 10000Stark bewölkt (300)
Stark bewölkt (240)
Wolkig (180)
 
LEEUWARDEN RNLAF
NL 1
Do 19.05. 19:33161488 %1018
1018
1018
W 4 (12)
WSW - WNW
>= 10000Bedeckt (340)
Stark bewölkt (270)
Wolkig (240)
 
LEEUWARDEN RNLAF
NL 1
Do 19.05. 19:26171482 %1017
1017
1017
W 4 (11)
WSW - WNW
>= 10000Stark bewölkt (340)
Wolkig (270)
Leicht bewölkt (240)
 
LEEUWARDEN RNLAF
NL 1
Do 19.05. 19:25171482 %1017
1017
1017
W 3 (9)>= 10000Bedeckt (490)
Wolkig (300)
Leicht bewölkt (270)
 
LEEUWARDEN RNLAF
NL 1
Do 19.05. 19:00161488 %1017
1017
1017
W 4 (13)
WSW - NW
>= 10000Stark bewölkt (580)
Stark bewölkt (460)
Stark bewölkt (340)
 
LEEUWARDEN RNLAF
NL 1
Do 19.05. 18:59161594 %1017
1017
1017
W 4 (13)
SW - NW
>= 10000Stark bewölkt (580)
Stark bewölkt (460)
Wolkig (340)
 
LEEUWARDEN RNLAF
NL 1
Do 19.05. 18:55161594 %1017
1017
1017
W 4 (13)
SW - NW
>= 10000Stark bewölkt (580)
Stark bewölkt (460)
Leicht bewölkt (370)
 
LEEUWARDEN RNLAF
NL 1
Do 19.05. 18:49161488 %1017
1017
1017
W 4 (14)
WSW - NW
>= 10000Stark bewölkt (460)
Wolkig (270)
Leicht bewölkt (180)
 
LEEUWARDEN RNLAF
NL 1
Do 19.05. 18:47171588 %1017
1017
1017
W 4 (13)
WSW - NW
>= 10000Stark bewölkt (580)
Stark bewölkt (210)
Wolkig (180)
 
LEEUWARDEN RNLAF
NL 1
Do 19.05. 18:41171588 %1017
1017
1017
W 4 (14)
WSW - NW
>= 10000Stark bewölkt (340)
Stark bewölkt (240)
Stark bewölkt (210)
 
LEEUWARDEN RNLAF
NL 1
Do 19.05. 18:36171588 %1017
1017
1017
W 4 (13)
SW - NW
>= 10000Stark bewölkt (430)
Wolkig (240)
Leicht bewölkt (210)
 
LEEUWARDEN RNLAF
NL 1
Do 19.05. 18:35181688 %1017
1017
1017
W 4 (11)
SW - WNW
>= 10000Stark bewölkt (580)
Wolkig (430)
Leicht bewölkt (370)
 
LEEUWARDEN RNLAF
NL 1
Do 19.05. 18:25201678 %1016
1016
1016
WSW 3 (9)
SSW - W
>= 10000Stark bewölkt (1300)
Stark bewölkt (670)
Wolkig (550)
 
LEEUWARDEN RNLAF
NL 1
Do 19.05. 18:21201678 %1016
1016
1016
WSW 3 (9)
SSW - W
>= 10000Stark bewölkt (1300)
Wolkig (670)
Leicht bewölkt (550)
 
LEEUWARDEN RNLAF
NL 1
Do 19.05. 17:55201678 %1016
1016
1016
WSW 3 (7)
SSW - W
>= 10000Wolkig (1500) 
LEEUWARDEN RNLAF
NL 1
Do 19.05. 17:25201678 %1016
1016
1016
SW 2 (5)
S - WSW
>= 10000Bedeckt (9400) 
LEEUWARDEN RNLAF
NL 1
Do 19.05. 16:55191683 %1016
1016
1016
SSW 2 (4)
SSO - WSW
>= 10000Bedeckt (7000) 
LEEUWARDEN RNLAF
NL 1
Do 19.05. 16:25181688 %1015
1015
1015
OSO 2 (6)
NNO - S
>= 10000Bedeckt (4900) 
LEEUWARDEN RNLAF
NL 1
Do 19.05. 16:21181688 %1015
1015
1015
O 2 (6)
NNO - S
>= 10000Bedeckt (4600)
Leicht bewölkt (2900)
 
LEEUWARDEN RNLAF
NL 1
Do 19.05. 16:13171694 %1016
1016
1016
Uml 2 (4)>= 10000Bedeckt (4000)
Wolkig (2900)
 
LEEUWARDEN RNLAF
NL 1
Do 19.05. 16:12171694 %1016
1016
1016
Uml 2 (5)>= 10000Bedeckt (4000)
Leicht bewölkt Cb (460)
 
LEEUWARDEN RNLAF
NL 1
Do 19.05. 15:56171694 %1016
1016
1016
O 2 (5)
NO - SSO
9000Bedeckt (3400)
Leicht bewölkt Cb (460)
Nieselregen (schwach)
LEEUWARDEN RNLAF
NL 1
Do 19.05. 15:55171694 %1016
1016
1016
SO 2 (4)
NO - SSW
6000Bedeckt (3000)
Leicht bewölkt Cb (460)
Nieselregen (schwach)
LEEUWARDEN RNLAF
NL 1
Do 19.05. 15:51181794 %1016
1016
1016
SO 2 (3)
O - SSW
6000Bedeckt (3000)
Stark bewölkt Cb (460)
Nieselregen/Regen (schwach)
LEEUWARDEN RNLAF
NL 1
Do 19.05. 15:39181794 %1017
1017
1017
SSO 2 (4)
OSO - SSW
Bald zeitweise:
WSW 3 (10) - 6 (25)
7000
Bald zeitweise: 3000
Bedeckt (3000)
Stark bewölkt Cb (460)
Regen (schwach)
Bald zeitweise: Regen-Schauer
Gewitter mit Regen
LEEUWARDEN RNLAF
NL 1
Do 19.05. 15:27181794 %1018
1018
1018
SSW 2 (4)
SO - WSW
Bald zeitweise:
WSW 3 (10) - 6 (25)
7000
Bald zeitweise: 3000
Stark bewölkt (2800)
Stark bewölkt Cb (460)
Leicht bewölkt (150)
Regen-Schauer (schwach)
Bald zeitweise: Regen-Schauer
Gewitter mit Regen
LEEUWARDEN RNLAF
NL 1
Do 19.05. 15:25181794 %1018
1018
1018
SW 3 (7)
S - W
Bald zeitweise:
WSW 3 (10) - 6 (25)
9000
Bald zeitweise: 3000
Stark bewölkt Cb (460)
Wolkig (240)
Leicht bewölkt (150)
Regen-Schauer
Bald zeitweise: Regen-Schauer
Gewitter mit Regen
LEEUWARDEN RNLAF
NL 1
Do 19.05. 15:12181794 %1018
1018
1018
WSW 2 (6)
SSW - W
Bald zeitweise:
WSW 3 (10) - 6 (25)
7000
Bald zeitweise: 3000
Bedeckt (2800)
Wolkig Cb (460)
Leicht bewölkt (120)
Regen-Schauer (schwach)
Bald zeitweise: Regen-Schauer
Gewitter mit Regen
LEEUWARDEN RNLAF
NL 1
Do 19.05. 15:07181794 %1018
1018
1018
SW 2 (5)
Bald zeitweise:
WSW 3 (10) - 6 (25)
8000
Bald zeitweise: 3000
Stark bewölkt (2800)
Wolkig Cb (460)
Leicht bewölkt (120)
Regen (schwach)
Bald zeitweise: Regen-Schauer
Gewitter mit Regen
LEEUWARDEN RNLAF
NL 1
Do 19.05. 15:03181794 %1018
1018
1018
SW 2 (6)
S - WSW
Bald zeitweise:
WSW 3 (10) - 6 (25)
8000
Bald zeitweise: 3000
Stark bewölkt (2700)
Stark bewölkt Cb (460)
Wolkig (120)
Regen (schwach)
Bald zeitweise: Regen-Schauer
Gewitter mit Regen
LEEUWARDEN RNLAF
NL 1
Do 19.05. 14:55181794 %1018
1018
1018
SW 2 (6)
S - WSW
Bald zeitweise:
WSW 3 (10) - 6 (25)
9000
Bald zeitweise: 3000
Stark bewölkt (2700)
Wolkig (2600)
Stark bewölkt Cb (460)
Regen-Schauer (schwach)
Bald zeitweise: Regen-Schauer
Gewitter mit Regen
LEEUWARDEN RNLAF
NL 1
Do 19.05. 14:38181794 %1018
1018
1018
WSW 3 (7)
SSW - W
Bald zeitweise:
WSW 3 (10) - 6 (25)
6000
Bald zeitweise: 3000
Stark bewölkt (2000)
Stark bewölkt Cb (460)
Leicht bewölkt (210)
Gewitter mit Regen
Bald zeitweise: Regen-Schauer
Gewitter mit Regen
LEEUWARDEN RNLAF
NL 1
Do 19.05. 14:25191788 %1018
1018
1018
SW 4 (12)
S - WSW
Bald zeitweise:
WSW 3 (10) - 6 (25)
6000
Bald zeitweise: 3000
Stark bewölkt (700)
Wolkig (610)
Leicht bewölkt Cb (460)
Gewitter mit Regen
Bald zeitweise: Regen-Schauer
Gewitter mit Regen
LEEUWARDEN RNLAF
NL 1
Do 19.05. 14:21191788 %1018
1018
1018
SW 3 (10)
Bald zeitweise:
WSW 3 (10) - 6 (25)
4100
Bald zeitweise: 3000
Stark bewölkt (1500)
Wolkig (880)
Leicht bewölkt Cb (460)
Gewitter mit Regen (stark)
Bald zeitweise: Regen-Schauer
Gewitter mit Regen
LEEUWARDEN RNLAF
NL 1
Do 19.05. 14:16191788 %1018
1018
1018
SW 3 (9)
Bald zeitweise:
WSW 3 (10) - 6 (25)
6000
Bald zeitweise: 3000
Stark bewölkt (1600)
Wolkig (1300)
Leicht bewölkt Cb (460)
Gewitter mit Regen
Bald zeitweise: Regen-Schauer
Gewitter mit Regen
LEEUWARDEN RNLAF
NL 1
Do 19.05. 14:06191788 %1017
1017
1017
SW 3 (7)
S - WSW
Bald zeitweise:
WSW 3 (10) - 6 (25)
9000
Bald zeitweise: 3000
Stark bewölkt (2200)
Wolkig (1900)
Leicht bewölkt Cb (460)
Gewitter mit Regen
Bald zeitweise: Regen-Schauer
Gewitter mit Regen
LEEUWARDEN RNLAF
NL 1
Do 19.05. 13:57201783 %1017
1017
1017
SW 3 (8)
S - W
Bald zeitweise:
WSW 3 (10) - 6 (25)
7000
Bald zeitweise: 3000
Stark bewölkt (2000)
Stark bewölkt (1900)
Leicht bewölkt Cb (460)
Gewitter mit Regen (stark)
Bald zeitweise: Regen-Schauer
Gewitter mit Regen
LEEUWARDEN RNLAF
NL 1
Do 19.05. 13:55211778 %1017
1017
1017
SW 3 (10)
S - WSW
Bald zeitweise:
WSW 3 (10) - 6 (25)
3000Stark bewölkt (2000)
Stark bewölkt (1900)
Leicht bewölkt Cb (460)
Gewitter mit Regen (stark)
Bald zeitweise: Regen-Schauer
Gewitter mit Regen
LEEUWARDEN RNLAF
NL 1
Do 19.05. 13:49211673 %1017
1017
1017
SW 3 (8)
S - WSW
Bald zeitweise:
WSW 3 (10) - 6 (25)
>= 10000
Bald zeitweise: 3000
Stark bewölkt (2200)
Wolkig (640)
Leicht bewölkt Cb (550)
Gewitter mit Regen (schwach)
Bald zeitweise: Regen-Schauer
Gewitter mit Regen
LEEUWARDEN RNLAF
NL 1
Do 19.05. 13:42211778 %1016
1016
1016
SW 2 (6)
S - W
Bald zeitweise:
WSW 3 (10) - 6 (25)
>= 10000
Bald zeitweise: 3000
Bedeckt (2300)
Wolkig (640)
 Bald zeitweise: Regen-Schauer
Gewitter mit Regen
LEEUWARDEN RNLAF
NL 1
Do 19.05. 13:36211673 %1016
1016
1016
S 2 (3)
SSO - W
Bald zeitweise:
WSW 3 (10) - 6 (25)
>= 10000
Bald zeitweise: 3000
Bedeckt (2300)
Leicht bewölkt Cb (610)
 Bald zeitweise: Regen-Schauer
Gewitter mit Regen
LEEUWARDEN RNLAF
NL 1
Do 19.05. 13:27221669 %1015
1015
1015
SSO 2 (4)
OSO - SSW
Bald zeitweise:
WSW 3 (10) - 6 (25)
>= 10000
Bald zeitweise: 3000
Bedeckt (2800)
Stark bewölkt (2400)
 Bald zeitweise: Regen-Schauer
Gewitter mit Regen
LEEUWARDEN RNLAF
NL 1
Do 19.05. 13:25221565 %1015
1015
1015
SSO 2 (6)
O - SSW
Bald Übergang zu:
SSO 3 (10)
>= 10000Bedeckt (3000)
Stark bewölkt (2800)
Wolkig (2500)
 
LEEUWARDEN RNLAF
NL 1
Do 19.05. 12:55211778 %1015
1015
1015
SO 3 (9)
O - S
Bald Übergang zu:
SSO 3 (10)
>= 10000Bedeckt (3700) 
LEEUWARDEN RNLAF
NL 1
Do 19.05. 12:25201783 %1015
1015
1015
OSO 4 (11)
NO - S
Bald Übergang zu:
SSO 3 (10)
>= 10000Stark bewölkt (3000)
Wolkig (3000)
 
LEEUWARDEN RNLAF
NL 1
Do 19.05. 12:08191788 %1016
1016
1016
OSO 4 (11)
NO - S
Bald zeitweise:
Uml 2 (6)
8000
Bald zeitweise: 4000
Bedeckt (3000)Nebeldunst
Bald zeitweise: Regen-Schauer
Gewitter mit Regen
LEEUWARDEN RNLAF
NL 1
Do 19.05. 11:55191683 %1016
1016
1016
Uml 3 (10)
Bald zeitweise:
Uml 2 (6)
7000
Bald zeitweise: 4000
Bedeckt (3400)Nebeldunst
Bald zeitweise: Regen-Schauer
Gewitter mit Regen
LEEUWARDEN RNLAF
NL 1
Do 19.05. 11:25181688 %1017
1017
1017
Uml 3 (7)
Bald zeitweise:
Uml 2 (6)
5000
Bald zeitweise: 4000
Bedeckt (210)
Stark bewölkt (180)
Wolkig (120)
Nebeldunst
Bald zeitweise: Regen-Schauer
Gewitter mit Regen
LEEUWARDEN RNLAF
NL 1
Do 19.05. 11:18181794 %1017
1017
1017
Uml 2 (6)
Bald zeitweise:
Uml 2 (6)
5000
Bald zeitweise: 4000
Bedeckt (210)
Stark bewölkt (180)
Wolkig (120)
Nebeldunst
Bald zeitweise: Regen-Schauer
Gewitter mit Regen
LEEUWARDEN RNLAF
NL 1
Do 19.05. 11:08171694 %1017
1017
1017
O 2 (5)
N - S
Bald zeitweise:
Uml 2 (6)
5000
Bald zeitweise: 4000
Leicht bewölkt Cb (460)
Stark bewölkt (210)
Stark bewölkt (120)
Nebeldunst
Bald zeitweise: Regen-Schauer
Gewitter mit Regen
LEEUWARDEN RNLAF
NL 1
Do 19.05. 11:01181688 %1017
1017
1017
Uml 2 (4)
Bald zeitweise:
Uml 2 (6)
6000
Bald zeitweise: 4000
Leicht bewölkt Cb (460)
Stark bewölkt (210)
Stark bewölkt (150)
Wolkig (120)
Nebeldunst
Bald zeitweise: Regen-Schauer
Gewitter mit Regen
LEEUWARDEN RNLAF
NL 1
Do 19.05. 10:55181688 %1017
1017
1017
ONO 2 (3)
NNW - O
Bald zeitweise:
Uml 2 (6)
6000
Bald zeitweise: 4000
Leicht bewölkt Cb (460)
Stark bewölkt (180)
Stark bewölkt (150)
Regen/Nieselregen (schwach)
Bald zeitweise: Regen-Schauer
Gewitter mit Regen
LEEUWARDEN RNLAF
NL 1
Do 19.05. 10:25181688 %1017
1017
1017
O 2 (6)
Bald zeitweise:
Uml 2 (6)
6000
Bald zeitweise: 4000
Stark bewölkt (3400)
Stark bewölkt (180)
Stark bewölkt (150)
Nebeldunst
Bald zeitweise: Regen-Schauer
Gewitter mit Regen
LEEUWARDEN RNLAF
NL 1
Do 19.05. 10:19171694 %1017
1017
1017
O 2 (6)
Bald zeitweise:
Uml 2 (6)
7000
Bald zeitweise: 4000
Stark bewölkt (3400)
Stark bewölkt (150)
Wolkig (120)
Nebeldunst
Bald zeitweise: Regen-Schauer
Gewitter mit Regen
LEEUWARDEN RNLAF
NL 1
Do 19.05. 10:15181688 %1017
1017
1017
Uml 3 (7)
Bald zeitweise:
Uml 2 (6)
7000
Bald zeitweise: 4000
Stark bewölkt (3000)
Wolkig (180)
Leicht bewölkt (120)
Nebeldunst
Bald zeitweise: Regen-Schauer
Gewitter mit Regen
LEEUWARDEN RNLAF
NL 1
Do 19.05. 10:03171694 %1017
1017
1017
O 3 (8)
N - SSO
Bald zeitweise:
Uml 2 (6)
6000
Bald zeitweise: 4000
Bedeckt (3000)
Leicht bewölkt (120)
Nebeldunst
Bald zeitweise: Regen-Schauer
Gewitter mit Regen
LEEUWARDEN RNLAF
NL 1
Do 19.05. 09:55171694 %1017
1017
1017
Uml 3 (8)
Bald zeitweise:
Uml 2 (6)
6000
Bald zeitweise: 4000
Bedeckt (3400)
Wolkig (120)
Nebeldunst
Bald zeitweise: Regen-Schauer
Gewitter mit Regen
LEEUWARDEN RNLAF
NL 1
Do 19.05. 09:47171694 %1017
1017
1017
Uml 3 (8)
Bald zeitweise:
Uml 2 (6)
7000
Bald zeitweise: 2500
Bedeckt (3000)
Stark bewölkt (150)
Wolkig (120)
Nebeldunst
Bald zeitweise: Regen-Schauer
Gewitter mit Regen
LEEUWARDEN RNLAF
NL 1
Do 19.05. 09:40171694 %1017
1017
1017
Uml 3 (7)
Bald zeitweise:
Uml 2 (6)
8000
Bald zeitweise: 2500
Bedeckt (3000)
Wolkig (120)
Nebeldunst
Bald zeitweise: Regen-Schauer
Gewitter mit Regen
LEEUWARDEN RNLAF
NL 1
Do 19.05. 09:25171694 %1017
1017
1017
NO 2 (4)
N - SO
Bald zeitweise:
Uml 2 (6)
9000
Bald zeitweise: 2500
Stark bewölkt (3000)
Wolkig (2700)
Leicht bewölkt (2000)
Nebeldunst
Bald zeitweise: Regen-Schauer
Gewitter mit Regen
LEEUWARDEN RNLAF
NL 1
Do 19.05. 09:13171694 %1017
1017
1017
N 2 (4)
NNW - NO
Bald zeitweise:
Uml 2 (6)
9000
Bald zeitweise: 2500
Stark bewölkt (2800)
Wolkig (2600)
Leicht bewölkt (2300)
Nebeldunst
Bald zeitweise: Regen-Schauer
Gewitter mit Regen
LEEUWARDEN RNLAF
NL 1
Do 19.05. 09:001616100 %1016
1016
1016
N 2 (5)
Bald zeitweise:
Uml 2 (6)
8000
Bald zeitweise: 2500
Bedeckt (3000)Nebeldunst
Bald zeitweise: Regen-Schauer
Gewitter mit Regen
LEEUWARDEN RNLAF
NL 1
Do 19.05. 08:551616100 %1016
1016
1016
N 2 (5)
NNW - NNO
Bald zeitweise:
Uml 2 (6)
6000
Bald zeitweise: 2500
Bedeckt (3000)
Wolkig (2900)
Leicht bewölkt Cb (460)
Nebeldunst
Bald zeitweise: Regen-Schauer
Gewitter mit Regen
LEEUWARDEN RNLAF
NL 1
Do 19.05. 08:441616100 %1017
1017
1017
N 2 (6)
NW - NNO
Bald zeitweise:
Uml 2 (6)
6000
Bald zeitweise: 2500
Stark bewölkt (2700)
Wolkig (2500)
Leicht bewölkt Cb (460)
Nebeldunst
Bald zeitweise: Regen-Schauer
Gewitter mit Regen
LEEUWARDEN RNLAF
NL 1
Do 19.05. 08:371616100 %1017
1017
1017
N 2 (6)
WNW - NNO
Bald zeitweise:
Uml 2 (6)
4100
Bald zeitweise: 2500
Stark bewölkt (2900)
Wolkig (2500)
Wolkig Cb (460)
Nieselregen/Regen (schwach)
Bald zeitweise: Regen-Schauer
Gewitter mit Regen
LEEUWARDEN RNLAF
NL 1
Do 19.05. 08:301616100 %1017
1017
1017
N 2 (6)
WNW - NNO
Bald zeitweise:
Uml 2 (6)
3900
Bald zeitweise: 2500
Stark bewölkt (3000)
Wolkig (2600)
Stark bewölkt Cb (460)
Regen (schwach)
Bald zeitweise: Regen-Schauer
Gewitter mit Regen
LEEUWARDEN RNLAF
NL 1
Do 19.05. 08:25171694 %1017
1017
1017
N 2 (5)
NW - NO
Bald zeitweise:
Uml 2 (6)
3000
Bald zeitweise: 2500
Stark bewölkt (2700)
Wolkig (2300)
Stark bewölkt Cb (460)
Regen-Schauer (schwach)
Bald zeitweise: Regen-Schauer
Gewitter mit Regen
LEEUWARDEN RNLAF
NL 1
Do 19.05. 08:17171694 %1017
1017
1017
NNW 2 (3)
SW - NNO
Bald zeitweise:
Uml 2 (6)
2700
Bald zeitweise: 2500
Stark bewölkt (2700)
Wolkig (2400)
Stark bewölkt Cb (460)
Regen-Schauer
Bald zeitweise: Regen-Schauer
Gewitter mit Regen
LEEUWARDEN RNLAF
NL 1
Do 19.05. 08:05171694 %1018
1018
1018
W 2 (5)
SW - NW
2900
Bald zeitweise: 3000
Stark bewölkt (2400)
Stark bewölkt (2200)
Wolkig Cb (460)
Regen
Bald zeitweise: Regen-Schauer
LEEUWARDEN RNLAF
NL 1
Do 19.05. 07:55171694 %1018
1018
1018
W 3 (9)
SSW - WNW
3700
Bald zeitweise: 3000
Stark bewölkt (2800)
Wolkig (2400)
Wolkig Cb (460)
Regen
Bald zeitweise: Regen-Schauer
LEEUWARDEN RNLAF
NL 1
Do 19.05. 07:37161594 %1017
1017
1017
W 2 (3)
SW - NW
6000Bedeckt (2900)
Stark bewölkt (2700)
Wolkig Cb (460)
Regen/Nieselregen (schwach)
LEEUWARDEN RNLAF
NL 1
Do 19.05. 07:25161594 %1018
1018
1018
W 2 (6)
SW - WNW
6000Stark bewölkt (850)
Wolkig (760)
Wolkig Cb (460)
Regen-Schauer (schwach)
LEEUWARDEN RNLAF
NL 1
Do 19.05. 07:15161488 %1018
1018
1018
WSW 3 (9)
SSW - W
7000Bedeckt (850)
Stark bewölkt (730)
Wolkig (640)
Leicht bewölkt Cb (460)
Gewitter mit Regen
LEEUWARDEN RNLAF
NL 1
Do 19.05. 07:08161488 %1018
1018
1018
WSW 3 (10)
SSW - W
7000Stark bewölkt (850)
Wolkig (640)
Leicht bewölkt Cb (460)
Gewitter mit Regen (schwach)
Nieselregen
LEEUWARDEN RNLAF
NL 1
Do 19.05. 07:04161488 %1018
1018
1018
WSW 4 (11)
S - W
7000Bedeckt (2000)
Stark bewölkt (760)
Wolkig (670)
Leicht bewölkt Cb (460)
Nieselregen
LEEUWARDEN RNLAF
NL 1
Do 19.05. 07:03161488 %1017
1017
1017
SW 3 (9)
S - W
8000Bedeckt (2000)
Stark bewölkt (730)
Leicht bewölkt Cb (460)
Gewitter mit Regen (schwach)
Nieselregen (schwach)
LEEUWARDEN RNLAF
NL 1
Do 19.05. 06:59161488 %1017
1017
1017
SW 3 (8) - 5 (18)
SSO - WSW
8000Bedeckt (3100)
Stark bewölkt (2000)
Wolkig (760)
Leicht bewölkt Cb (460)
Gewitter mit Regen (schwach)
LEEUWARDEN RNLAF
NL 1
Do 19.05. 06:55161488 %1017
1017
1017
SSW 3 (7)
SO - WSW
9000Stark bewölkt (2300)
Wolkig (2000)
Leicht bewölkt Cb (460)
Nebeldunst
LEEUWARDEN RNLAF
NL 1
Do 19.05. 06:47171482 %1016
1016
1016
S 3 (7)
OSO - SSW
9000Stark bewölkt (2500)
Wolkig (2100)
Leicht bewölkt Cb (460)
Nebeldunst
LEEUWARDEN RNLAF
NL 1
Do 19.05. 06:25161382 %1015
1015
1015
OSO 3 (7)
O - SSO
>= 10000Bedeckt (3700)
Leicht bewölkt Cb (460)
 
LEEUWARDEN RNLAF
NL 1
Do 19.05. 06:16161382 %1016
1016
1016
OSO 3 (7)
NO - SSO
>= 10000Bedeckt (4000)
Leicht bewölkt Cb (460)
 
LEEUWARDEN RNLAF
NL 1
Do 19.05. 05:59161382 %1016
1016
1016
OSO 3 (8)
NO - S
>= 10000Bedeckt (5500)
Leicht bewölkt Cb (460)
 
LEEUWARDEN RNLAF
NL 1
Do 19.05. 05:55161382 %1016
1016
1016
OSO 3 (7)
NO - SSO
>= 10000Bedeckt (5500) 
LEEUWARDEN RNLAF
NL 1
Do 19.05. 05:25151388 %1016
1016
1016
OSO 2 (5)
NO - SSO
>= 10000Bedeckt (3000)
Leicht bewölkt (700)
 
LEEUWARDEN RNLAF
NL 1
Do 19.05. 04:55141394 %1017
1017
1017
NO 2 (4)
N - OSO
9000Stark bewölkt (2800)
Wolkig (2700)
Leicht bewölkt (2300)
Nebeldunst
LEEUWARDEN RNLAF
NL 1
Do 19.05. 04:25151388 %1017
1017
1017
O 2 (3)
N - SSO
9000Bedeckt (6400)
Leicht bewölkt (4300)
Nebeldunst
LEEUWARDEN RNLAF
NL 1
Do 19.05. 04:06151388 %1017
1017
1017
Uml 2 (4)>= 10000Bedeckt (6700) 
LEEUWARDEN RNLAF
NL 1
Do 19.05. 03:55141394 %1017
1017
1017
Uml 2 (4)>= 10000Bedeckt (7300)
Stark bewölkt (2300)
 
LEEUWARDEN RNLAF
NL 1
Do 19.05. 03:50141394 %1017
1017
1017
Uml 2 (4)6000Bedeckt (7300)
Stark bewölkt (2300)
Nebeldunst
LEEUWARDEN RNLAF
NL 1
Do 19.05. 03:40141394 %1017
1017
1017
Uml 2 (4)9000Bedeckt (7300)
Leicht bewölkt (2300)
Nebeldunst
LEEUWARDEN RNLAF
NL 1
Do 19.05. 03:39141394 %1017
1017
1017
Uml 2 (4)7000Bedeckt (7300)Nebeldunst
LEEUWARDEN RNLAF
NL 1
Do 19.05. 03:251313100 %1017
1017
1017
Uml 2 (4)5000Bedeckt (7300)
Stark bewölkt (3000)
Stark bewölkt (2400)
Nebeldunst
LEEUWARDEN RNLAF
NL 1
Do 19.05. 03:091313100 %1018
1018
1018
Uml 2 (4)3100Stark bewölkt (2900)
Stark bewölkt (2700)
Wolkig (2500)
Nebeldunst
LEEUWARDEN RNLAF
NL 1
Do 19.05. 03:07131294 %1018
1018
1018
Uml 2 (5)4200Stark bewölkt (3000)
Wolkig (2800)
Wolkig (2600)
Nebeldunst
LEEUWARDEN RNLAF
NL 1
Do 19.05. 02:551313100 %1018
1018
1018
Uml 2 (4)2700Bedeckt (7300)
Wolkig (2800)
Leicht bewölkt (2600)
Nebeldunst
LEEUWARDEN RNLAF
NL 1
Do 19.05. 02:481313100 %1018
1018
1018
Uml 2 (4)2800Bedeckt (7300)
Leicht bewölkt (2700)
Nebeldunst
LEEUWARDEN RNLAF
NL 1
Do 19.05. 02:471313100 %1018
1018
1018
O 2 (4)
NNO - S
4800Bedeckt (7300)
Leicht bewölkt (2900)
Nebeldunst
LEEUWARDEN RNLAF
NL 1
Do 19.05. 02:39131294 %1018
1018
1018
O 2 (5)
NNO - SSO
5000Bedeckt (7300)
Leicht bewölkt (2900)
Nebeldunst
LEEUWARDEN RNLAF
NL 1
Do 19.05. 02:371212100 %1018
1018
1018
Uml 2 (4)4300Bedeckt (7300)
Leicht bewölkt (2900)
Nebeldunst
LEEUWARDEN RNLAF
NL 1
Do 19.05. 02:29131294 %1018
1018
1018
O 2 (5)
N - SSO
3100Bedeckt (7300)Nebeldunst
LEEUWARDEN RNLAF
NL 1
Do 19.05. 02:251212100 %1018
1018
1018
O 2 (5)
N - SSO
4000Bedeckt (7300)Nebeldunst
LEEUWARDEN RNLAF
NL 1
Do 19.05. 02:071111100 %1018
1018
1018
O 2 (4)
NNO - SSO
2200Bedeckt (7000)Nebeldunst
LEEUWARDEN RNLAF
NL 1
Do 19.05. 02:061111100 %1018
1018
1018
ONO 2 (4)
NNO - SO
900Bedeckt (10000)
Stark bewölkt (7000)
Nebel
LEEUWARDEN RNLAF
NL 1
Do 19.05. 02:001111100 %1018
1018
1018
ONO 2 (4)
N - SO
750Bedeckt (10000)
Wolkig (7000)
Nebel
LEEUWARDEN RNLAF
NL 1
Do 19.05. 01:551111100 %1018
1018
1018
ONO 2 (4)
N - SO
2500Bedeckt (11000)
Stark bewölkt (9400)
Leicht bewölkt (7300)
Nebeldunst
LEEUWARDEN RNLAF
NL 1
Do 19.05. 01:391111100 %1018
1018
1018
NO 2 (4)
N - O
4800Bedeckt (9800)
Wolkig (7300)
Nebeldunst
LEEUWARDEN RNLAF
NL 1
Do 19.05. 01:331111100 %1018
1018
1018
Uml 2 (4)2000Bedeckt (9800)
Stark bewölkt (7300)
Nebeldunst
LEEUWARDEN RNLAF
NL 1
Do 19.05. 01:261212100 %1018
1018
1018
Uml 2 (4)900Bedeckt (7300)Nebel
LEEUWARDEN RNLAF
NL 1
Do 19.05. 01:251212100 %1019
1019
1019
ONO 2 (4)
N - SO
700Bedeckt (10000)
Stark bewölkt (7300)
Nebel
LEEUWARDEN RNLAF
NL 1
Do 19.05. 01:161111100 %1019
1019
1019
O 2 (4)
NNW - SO
1000Bedeckt (10000)
Leicht bewölkt (7900)
Nebeldunst
LEEUWARDEN RNLAF
NL 1
Do 19.05. 01:11121194 %1019
1019
1019
Uml 2 (4)1700Bedeckt (10000)Nebeldunst
LEEUWARDEN RNLAF
NL 1
Do 19.05. 01:06121194 %1019
1019
1019
Uml 2 (4)1300Bedeckt (10000)
Wolkig (7900)
Nebeldunst
LEEUWARDEN RNLAF
NL 1
Do 19.05. 00:551111100 %1019
1019
1019
ONO 2 (4)
N - SSO
2700Bedeckt (7600)Nebeldunst
LEEUWARDEN RNLAF
NL 1
Do 19.05. 00:481111100 %1019
1019
1019
Uml 2 (4)2500Bedeckt (7600)Nebeldunst
LEEUWARDEN RNLAF
NL 1
Do 19.05. 00:461111100 %1019
1019
1019
Uml 2 (4)1100Bedeckt (7600)Nebeldunst
LEEUWARDEN RNLAF
NL 1
Do 19.05. 00:251111100 %1019
1019
1019
ONO 2 (3)
N - OSO
1600Bedeckt (7900)Nebeldunst
LEEUWARDEN RNLAF
NL 1
Mi 18.05. 23:55121194 %1019
1019
1019
NO 2 (3)
NNO - O
3100Bedeckt (7600)Nebeldunst
LEEUWARDEN RNLAF
NL 1
Mi 18.05. 23:35121194 %1020
1020
1020
ONO 2 (3)
NNW - SO
2800Bedeckt (11000)
Leicht bewölkt (8200)
Nebeldunst
LEEUWARDEN RNLAF
NL 1
Mi 18.05. 23:26131294 %1019
1019
1019
Uml 2 (3)4300Bedeckt (11000)
Wolkig (8200)
Nebeldunst
LEEUWARDEN RNLAF
NL 1
Mi 18.05. 23:25131294 %1019
1019
1019
Uml 2 (4)3200Bedeckt (11000)
Wolkig (8200)
Nebeldunst
LEEUWARDEN RNLAF
NL 1
Mi 18.05. 23:16121194 %1019
1019
1019
ONO 2 (4)
N - OSO
3500Bedeckt (11000)Nebeldunst
LEEUWARDEN RNLAF
NL 1
Mi 18.05. 23:00131294 %1020
1020
1020
ONO 2 (5)
N - SSO
6000Bedeckt (11000)Nebeldunst
LEEUWARDEN RNLAF
NL 1
Mi 18.05. 22:59131294 %1020
1020
1020
ONO 2 (4)
N - SSO
3300Stark bewölkt (11000)Nebeldunst
LEEUWARDEN RNLAF
NL 1
Mi 18.05. 22:55131294 %1020
1020
1020
Uml 2 (4)7000Stark bewölkt (11000)Nebeldunst
LEEUWARDEN RNLAF
NL 1
Mi 18.05. 22:41131294 %1020
1020
1020
Uml 2 (5)7000Bedeckt (12000)
Stark bewölkt (7900)
Nebeldunst
LEEUWARDEN RNLAF
NL 1
Mi 18.05. 22:25131294 %1020
1020
1020
ONO 2 (5)
N - SSO
>= 10000Bedeckt (7900) 
LEEUWARDEN RNLAF
NL 1
Mi 18.05. 21:55131294 %1020
1020
1020
Uml 1 (2)>= 10000Bedeckt (8200) 
LEEUWARDEN RNLAF
NL 1
Mi 18.05. 21:25141288 %1020
1020
1020
N 1 (2)>= 10000Bedeckt (8200) 
LEEUWARDEN RNLAF
NL 1
Mi 18.05. 20:55151388 %1020
1020
1020
N 2 (3)
N - ONO
>= 10000Bedeckt (7600) 
LEEUWARDEN RNLAF
NL 1
Mi 18.05. 20:25171377 %1020
1020
1020
N 2 (4)>= 10000Bedeckt (7600) 
LEEUWARDEN RNLAF
NL 1
Mi 18.05. 19:55181268 %1020
1020
1020
N 2 (5)
NW - N
>= 10000Bedeckt (7900) 
LEEUWARDEN RNLAF
NL 1
Mi 18.05. 19:25181268 %1020
1020
1020
NNW 2 (5)
WNW - N
>= 10000Bedeckt (10000)
Stark bewölkt (8500)
 
LEEUWARDEN RNLAF
NL 1
Mi 18.05. 18:55191160 %1020
1020
1020
NNW 2 (6)
WNW - NNO
>= 10000Bedeckt (11000)
Stark bewölkt (8800)
 
LEEUWARDEN RNLAF
NL 1
Mi 18.05. 18:25191264 %1020
1020
1020
NNW 2 (6)
WNW - N
>= 10000Bedeckt (8200) 
LEEUWARDEN RNLAF
NL 1
Mi 18.05. 17:55191264 %1021
1021
1021
NNW 3 (7)
WNW - NNO
>= 10000Bedeckt (9100) 
LEEUWARDEN RNLAF
NL 1
Mi 18.05. 17:25191264 %1021
1021
1021
NNW 3 (9)
W - N
>= 10000Bedeckt (7600) 
LEEUWARDEN RNLAF
NL 1
Mi 18.05. 16:55191368 %1021
1021
1021
NNW 3 (9)
W - NNO
>= 10000Bedeckt (8500)
Leicht bewölkt (2700)
 
LEEUWARDEN RNLAF
NL 1
Mi 18.05. 16:25191264 %1021
1021
1021
NNW 3 (8)
W - NNO
>= 10000Stark bewölkt (8200)
Stark bewölkt (2900)
Wolkig (2600)
 
LEEUWARDEN RNLAF
NL 1
Mi 18.05. 16:17201364 %1021
1021
1021
NNW 3 (8)
W - N
>= 10000Stark bewölkt (3000)
Stark bewölkt (2700)
 
LEEUWARDEN RNLAF
NL 1
Mi 18.05. 15:55191368 %1021
1021
1021
NW 3 (8)
WSW - NNO
>= 10000Stark bewölkt (2100)
Stark bewölkt (1900)
Stark bewölkt (1600)
 
LEEUWARDEN RNLAF
NL 1
Mi 18.05. 15:25181477 %1021
1021
1021
NW 3 (8)
WNW - N
>= 10000Bedeckt (2000) 
LEEUWARDEN RNLAF
NL 1
Mi 18.05. 14:55191473 %1021
1021
1021
NW 3 (7)
W - N
>= 10000Bedeckt (2000) 

Altimeter: Einstellung am Altimeter (Höhenmesser), die Höhe 0 muss auf diesen Luftdruckwert zeigen, damit das Gerät die Stationshöhe richtig anzeigt.

NN: Luftdruck reduziert auf "Normal Null", auf Meereshöhe, dieser von der Temperatur abhängige Wert wird bisweilen unkorrekt einfach als "Luftdruck" bezeichnet. Eigentlich nur eine fiktive Größe, die es erlaubt, Stationen auf unterschiedlichen Höhen miteinander zu vergleichen.

Station: Realer Luftdruck an der Station.